Willow, Pennsylvania
Current Conditions -  °F | °C
As of 9:53 PM on Friday 19 Dec 2014 (Local Time) from KLNS Reporting Station
Broken Clouds Broken Clouds  
Wind Chill: 23°   Ceiling: 3700
Heat Index: 29°   Visibility: 10mi
Dew Point: 21°   Wind: 6mph
Humidity: 72%   Direction: 290°WNW
Pressure: 30.2"   Gusts: NA
Location:  39.9601°N, 76.2683°W
Report Text: KLNS 200253Z 29005KT 10SM BKN037 M02/M06 A3020 RMK AO2 SLP231 T10171061 51013
Loading
Personal Weather Stations






























Interactive Weather Map New forecast layout! Learn more

10-Day Weather Forecast

Advertisements
Track Severe Weather on mobile